This site, now in its 22nd season, is a labour of love and fun from one of Ottawa's most avid time trialists and number crunchers. It adheres to and is permitted by the laws of Canada, promotes the objectives of every bicycle club whose results are shown, and is donated free of charge by myself for your enjoyment and usage. If you would like results from series you ride in to be shown here, give me (celia@drmath.ca) a shout!
NOTE that this site had to be quickly moved to a new server with a new version of Perl. Unfortunately the way of interacting with the web form has changed, so I'll have to do some reprogramming to get the buttons and search boxes working. Meanwhile the links work fine and you can always add query specifications into the URL! :-)


Index Page
ATT OTT WTT AATT CFCTT VVVTT
Help resultformat:
Case-sensitive

OBC Open TT Series - 2016-May-12 - 15km (Rockliffe Pkwy) (EvtFactor = 0.8954)

Ottawa Weather (18:00): Mostly Cloudy. Temperature: 26.0C, Wind: SSW 14km/h, Relative humidity: 26%, Dew point: 5C, Pressure: 101.4kPa, Visibility: 24km.
Ottawa Weather (19:00): Mostly Cloudy. Temperature: 25.6C, Wind: SSW 16km/h, Relative humidity: 28%, Dew point: 6C, Pressure: 101.3kPa, Visibility: 24km.
Ottawa Weather (20:00): Mostly Cloudy. Temperature: 22.8C, Wind: ESE 8km/h, Relative humidity: 36%, Dew point: 7C, Pressure: 101.2kPa, Visibility: 24km.

Thanks go to Guylene Theriault for taking these photos.


These results were first posted on the OBC web site circa 23:00 on 2016-May-18 and are available here for your added pleasure and analysis.

 
 

BESTS?
 
1 Cataford, Alex SIL 18:42 48.128 1/67 U30M 1/6  
2 Amos, Ron  OBC/RWR 19:23 46.432 2/67 U60M 1/12  
3 Boileau, Greg NTF 19:25 46.352 3/67 U40M 1/8  
4 Brazeau, Marc RDO 19:43 45.647 4/67 U50M 1/13  
5 Diaz, Rodrigo  OBC/EUR 19:55 45.188 5/67 U40M 2/8 1.0279
6 Canuel, Karol-Ann BD 20:21 44.226 6/67 U30F 1/4  
7 Datars, Paul  OBC/RWR 20:23 44.154 7/67 U60M 2/12  
8 Chapman, Stephen IND 20:29 43.938 8/67 U40M 3/8  
9 Lavoie, Marcel  WQW 20:33 43.796 9/67 U50M 2/13  
10 Katz, Joel  OBC/RWR 20:34 43.760 10/67 U70M 1/7 0.9855
11 Martel, Brad RWR 20:35 43.725 11/67 U60M 3/12  
12 Moltmaker, Tijmen IND 20:41 43.513 12/67 U40M 4/8 1.0466
13 Lafleur, Guillaume ECG 20:44 43.408 13/67 U30M 2/6  
14 Miles, Carson OBC 20:53 43.097 14/67 U17M 1/2 1.1639
15 Lagueux, Frederic RPO 20:57 42.959 15/67 U50M 3/13 1.0241
16 Sudac, Rick  OBC/RWR 21:00 42.857 16/67 U70M 2/7  
17 Pelda, Patrick WQW 21:28 41.925 17/67 U50M 4/13  
18 Carrier, Damien ECG 21:48 41.284 18/67 U50M 5/13  
19 Labonte, Philippe OBC 21:54 41.096 19/67 U30M 3/6 1.0990
20 Martel, Laurent RPO 22:01 40.878 20/67 U50M 6/13 1.0159
21 Reiher, Martin RPO 22:10 40.602 21/67 U60M 4/12 1.0227
22 Page, Graham OBC/NTF 22:12 40.541 22/67 U40M 5/8 1.0273
23 Charlton, Christopher OBC 22:15 40.449 23/67 U70M 3/7  
24 Szkraba, Adam OBC 22:16 40.419 24/67 U30M 4/6  
25 Till, Michael WQW 22:22 40.238 25/67 U60M 5/12  
26 Budgell, Glen  OBC 22:24 40.179 26/67 U70M 4/7 1.0592
27 Mullington, Chris WQW 22:33 39.911 27/67 U60M 6/12 0.9890
28 Wright, David EUR 22:44 39.589 28/67 U50M 7/13 1.0311
29 Courtman, David OBC 22:51 39.387 29/67 U60M 7/12 1.2707
30 Trepanier, Mathieu OBC 22:53 39.330 30/67 U50M 8/13 1.1180
31 Chrysikopoulos, Nikos OBC 22:56 39.244 31/67 U19M 1/1 1.0578
32 Stephenson, Jennifer  PKE 23:01 39.102 32/67 U50F 1/4 1.0373
33 DeVidi, Robert  OBC 23:23 38.489 33/67 U60M 8/12 0.8909
34 Rivoche, Michael WQW 23:31 38.271 34/67 U60M 9/12  
35 Déry, Nicolas  OBC 23:32 38.244 35/67 U50M 9/13  
36 Boileau, Caroline NTF 23:37 38.109 36/67 U40F 1/2  
37 Canning, Jim 613 23:39 38.055 37/67 U50M 10/13 0.9958
38 Sherriff, Leah IND 23:44 37.921 38/67 U40F 2/2  
39 Meyer, Lisa  EUR 23:46 37.868 39/67 U60F 1/1  
40 Guignard, Christian OBC 23:52 37.709 40/67 U70M 5/7 1.0861
41 Deschamps, Martin WQW 23:56 37.604 41/67 U50M 11/13 1.0359
42 Lemire, Marie-Alexandre OBC 23:59 37.526 42/67 U19F 1/1 1.0167
43 Klus, Samantha OBC 24:16 37.088 43/67 U30F 2/4  
44 Moerman, Bram  OBC 24:22 36.936 44/67 U80M 1/5 1.1940
45 Clarke, Shawn SRC/CYC 24:23 36.910 45/67 U40M 6/8 0.9436
46 Morvan, Jacques  OBC 24:25 36.860 46/67 U80M 2/5 1.1391
47 McDonald Ibarra, Kory  OBC 24:27 36.810 47/67 U50F 2/4  
48 Martin, David OBC 24:30 36.735 48/67 U50M 12/13  
49 Comtois Lecocq, Alex OBC 24:53 36.169 49/67 U40M 7/8 1.1146
50 Grace, Darrin  EUR 24:58 36.048 50/67 U60M 10/12 1.0060
51 Miller, Paul RWR 25:03 35.928 51/67 U60M 11/12  
52 Miller, Abby OBC 25:10 35.762 52/67 U30F 3/4  
53 Gustyn, Andrew EUR 25:17 35.597 53/67 U60M 12/12  
54 Fontaine, Dominic TEK 25:24 35.433 54/67 U50M 13/13  
55 Lafleur, Antoine ECG 25:43 34.997 55/67 U30M 5/6  
56 Mijal, Vello OBC 25:48 34.884 56/67 U80M 3/5 1.1483
57 Lebrun, Antoine OBC 25:59 34.638 57/67 U17M 2/2 1.3197
58 Marchand, Simon OBC 26:05 34.505 58/67 U30M 6/6  
59 Dore, Morley OBC 26:15 34.286 59/67 U80M 4/5  
60 Dobbs, Brian OBC 26:16 34.264 60/67 U70M 6/7 1.1392
Gibbs, Kris TEK 26:16 34.264 60/67 U40M 8/8  
McInnis, Celia  OBC/ABC 26:16 34.264 60/67 U70F 1/1 1.0230
63 Appotive, Eric FC 26:19 34.199 63/67 U70M 7/7  
64 Beauchamp, Angela  EUR 26:30 33.962 64/67 U50F 3/4 0.8754
65 Adams, Meagan OBC 26:38 33.792 65/67 U30F 4/4  
66 Barber, Graeme OBC 28:31 31.560 66/67 U80M 5/5 1.2888
67 Paquette, Josée OBC 29:03 30.981 67/67 U50F 4/4  
 
Average Speed of all of the above 67 finishes (1005km in 26:01:52):38.608
>>>Average of the Average Speeds for these 67 finishes38.985<<<
 

The number of data records shown above is 67
The server processing of your query took: 1 wallclock secs ( 0.06 usr + 0.00 sys = 0.06 CPU)

Thanks to our Helpers: Byron Johnson, Alex McKnight, Jess Raymond, Stephanie Rees, Peter Tregunno.

     


Mar 25 (Good Friday - cancelled)
May 3 (10km) May 5 May 10 May 10 (10km)
  May 12  
May 17 May 17 (10km) May 19 May 24 May 24 (10km) May 26 May 31 May 31 (10km)
Jun 2 Jun 5 (40km) Jun 7 Jun 7 Jun 9 Jun 14 Jun 14 Jun 16 Jun 21 Jun 21 Jun 23 Jun 28 Jun 28 Jun 30
Jul 3 (40km) Jul 5 Jul 5 Jul 7 Jul 12 Jul 12 Jul 14 Jul 19 Jul 19 Jul 21 Jul 26 Jul 26 Jul 28
Aug 2 Aug 2 Aug 4 Aug 7 (40km) Aug 9 Aug 9 Aug 11 Aug 16 (canceled) Aug 16 (canceled) Aug 18 Aug 23 Aug 23 Aug 25 Aug 30 Aug 30 (Invitational)
Sep 1 Sep 4 (40km) Sep 6 Sep 8 Sep 13 Sep 20

WTT Rankings for All Participants
4 Best Speeds (≥4 WTT, ≤1 10km)     4 Best Speeds (≥4 WTT, ≤1 10km) by category
OTT Best Three 15km Rankings
Overall     by category     age-Hcap Female   age-Hcap Male
[OWA]TT BAR Ranking
Overall     by category     Rider "Consistency-Graph"
ABC BAR Ranking
Overall     by category     Rider "Consistency-Graph"
Other years
TT Calculator All TT People All TT events
ABC Home VVV Home
CKAP GOLD MEDAL
Other Links

Please send your comments and suggestions to: Celia McInnis
Copyright © 1998-2021 Celia McInnis. All rights reserved. Links are welcomed.